createdAt,value
2023-03-03T00:00:07.288Z,95.23
2023-03-03T00:01:07.283Z,95.55
2023-03-03T00:02:07.314Z,95.65
2023-03-03T00:03:07.409Z,95.34
2023-03-03T00:04:07.258Z,95.55
2023-03-03T00:05:07.247Z,95.55
2023-03-03T00:06:07.244Z,95.55
2023-03-03T00:07:07.240Z,95.55
2023-03-03T00:08:07.228Z,95.59
2023-03-03T00:09:07.224Z,95.80
2023-03-03T00:10:07.223Z,96.11
2023-03-03T00:11:07.203Z,95.70
2023-03-03T00:12:07.198Z,95.86
2023-03-03T00:13:07.210Z,96.07
2023-03-03T00:14:07.181Z,96.07
2023-03-03T00:15:07.172Z,96.17
2023-03-03T00:16:07.178Z,96.17
2023-03-03T00:17:07.155Z,96.17
2023-03-03T00:18:07.151Z,96.07
2023-03-03T00:19:07.140Z,95.76
2023-03-03T00:20:07.132Z,96.01
2023-03-03T00:21:07.122Z,95.49
2023-03-03T00:22:07.119Z,95.97
2023-03-03T00:23:07.110Z,96.07
2023-03-03T00:24:07.107Z,96.28
2023-03-03T00:25:07.100Z,96.38
2023-03-03T00:26:07.085Z,96.49
2023-03-03T00:27:07.076Z,96.59
2023-03-03T00:28:07.069Z,96.38
2023-03-03T00:29:07.094Z,97.05
2023-03-03T00:30:07.053Z,96.59
2023-03-03T00:31:07.118Z,96.49
2023-03-03T00:32:07.073Z,96.59
2023-03-03T00:33:07.029Z,96.17
2023-03-03T00:34:07.021Z,96.59
2023-03-03T00:35:07.015Z,96.38
2023-03-03T00:36:07.005Z,96.49
2023-03-03T00:37:06.998Z,95.97
2023-03-03T00:38:06.989Z,95.97
2023-03-03T00:39:06.982Z,96.49
2023-03-03T00:40:06.976Z,96.49
2023-03-03T00:41:06.966Z,95.97
2023-03-03T00:42:06.958Z,96.07
2023-03-03T00:43:07.306Z,96.28
2023-03-03T00:44:06.945Z,96.13
2023-03-03T00:45:06.964Z,96.03
2023-03-03T00:46:06.958Z,96.07
2023-03-03T00:47:06.923Z,96.07
2023-03-03T00:48:06.915Z,95.65
2023-03-03T00:49:06.906Z,95.97
2023-03-03T00:50:06.897Z,95.82
2023-03-03T00:51:06.896Z,96.07
2023-03-03T00:52:06.880Z,96.07
2023-03-03T00:53:06.886Z,96.17
2023-03-03T00:54:06.873Z,96.07
2023-03-03T00:55:06.867Z,96.59
2023-03-03T00:56:06.861Z,96.38
2023-03-03T00:57:06.848Z,97.11
2023-03-03T00:58:06.840Z,97.22
2023-03-03T00:59:06.825Z,97.11
2023-03-03T01:00:06.826Z,97.22
2023-03-03T01:01:06.829Z,97.22
2023-03-03T01:02:06.802Z,97.27
2023-03-03T01:03:06.807Z,96.91
2023-03-03T01:04:06.787Z,97.32
2023-03-03T01:05:06.784Z,96.80
2023-03-03T01:06:06.772Z,97.32
2023-03-03T01:07:06.767Z,97.11
2023-03-03T01:08:06.762Z,96.91
2023-03-03T01:09:06.746Z,97.01
2023-03-03T01:10:06.741Z,96.91
2023-03-03T01:11:06.732Z,97.28
2023-03-03T01:12:06.727Z,97.49
2023-03-03T01:13:06.721Z,97.38
2023-03-03T01:14:06.732Z,97.07
2023-03-03T01:15:06.702Z,97.53
2023-03-03T01:16:06.724Z,97.28
2023-03-03T01:17:06.702Z,97.49
2023-03-03T01:18:06.683Z,97.59
2023-03-03T01:19:06.666Z,97.28
2023-03-03T01:20:06.660Z,97.17
2023-03-03T01:21:06.661Z,97.38
2023-03-03T01:22:06.646Z,97.24
2023-03-03T01:23:06.647Z,97.38
2023-03-03T01:24:06.626Z,97.24
2023-03-03T01:25:06.628Z,96.86
2023-03-03T01:26:06.626Z,96.66
2023-03-03T01:27:06.606Z,97.07
2023-03-03T01:28:06.624Z,97.17
2023-03-03T01:29:06.610Z,96.86
2023-03-03T01:30:06.591Z,96.76
2023-03-03T01:31:06.625Z,96.91
2023-03-03T01:32:06.661Z,97.59
2023-03-03T01:33:06.576Z,97.32
2023-03-03T01:34:06.545Z,97.64
2023-03-03T01:35:06.540Z,97.74
2023-03-03T01:36:06.537Z,97.68
2023-03-03T01:37:06.529Z,97.95
2023-03-03T01:38:06.513Z,97.64
2023-03-03T01:39:06.501Z,97.85
2023-03-03T01:40:06.506Z,97.85
2023-03-03T01:41:06.492Z,98.05
2023-03-03T01:42:06.498Z,98.37
2023-03-03T01:43:06.473Z,98.31
2023-03-03T01:44:06.467Z,98.26
2023-03-03T01:45:06.463Z,98.37
2023-03-03T01:46:06.530Z,98.58
2023-03-03T01:47:06.444Z,98.26
2023-03-03T01:48:06.843Z,98.41
2023-03-03T01:49:06.445Z,98.47
2023-03-03T01:50:06.421Z,98.37
2023-03-03T01:51:06.408Z,98.37
2023-03-03T01:52:06.401Z,98.31
2023-03-03T01:53:06.391Z,98.21
2023-03-03T01:54:06.387Z,98.62
2023-03-03T01:55:06.375Z,98.52
2023-03-03T01:56:06.408Z,98.58
2023-03-03T01:57:06.357Z,98.62
2023-03-03T01:58:06.354Z,98.10
2023-03-03T01:59:06.341Z,98.58
2023-03-03T02:00:06.341Z,98.58
2023-03-03T02:01:06.322Z,98.37
2023-03-03T02:02:06.380Z,98.79
2023-03-03T02:03:06.372Z,97.91
2023-03-03T02:04:06.300Z,98.58
2023-03-03T02:05:06.309Z,98.63
2023-03-03T02:06:06.285Z,98.63
2023-03-03T02:07:06.272Z,98.28
2023-03-03T02:08:06.268Z,98.32
2023-03-03T02:09:06.256Z,98.43
2023-03-03T02:10:06.264Z,98.01
2023-03-03T02:11:06.254Z,97.59
2023-03-03T02:12:06.237Z,97.49
2023-03-03T02:13:06.228Z,97.38
2023-03-03T02:14:06.218Z,96.80
2023-03-03T02:15:06.214Z,97.22
2023-03-03T02:16:06.211Z,97.01
2023-03-03T02:17:06.208Z,96.91
2023-03-03T02:18:06.190Z,97.28
2023-03-03T02:19:06.180Z,97.53
2023-03-03T02:20:06.179Z,97.95
2023-03-03T02:21:06.184Z,97.70
2023-03-03T02:22:06.158Z,97.80
2023-03-03T02:23:06.155Z,97.80
2023-03-03T02:24:06.177Z,97.49
2023-03-03T02:25:06.132Z,98.11
2023-03-03T02:26:06.128Z,97.49
2023-03-03T02:27:06.144Z,97.97
2023-03-03T02:28:06.133Z,97.91
2023-03-03T02:29:06.099Z,98.11
2023-03-03T02:30:06.098Z,97.70
2023-03-03T02:31:06.088Z,97.65
2023-03-03T02:32:06.136Z,97.86
2023-03-03T02:33:06.089Z,97.55
2023-03-03T02:34:06.060Z,97.55
2023-03-03T02:35:06.054Z,97.55
2023-03-03T02:36:06.046Z,97.55
2023-03-03T02:37:06.064Z,97.44
2023-03-03T02:38:06.032Z,97.65
2023-03-03T02:39:06.022Z,97.86
2023-03-03T02:40:06.014Z,97.71
2023-03-03T02:41:06.004Z,97.34
2023-03-03T02:42:05.998Z,97.19
2023-03-03T02:43:05.987Z,97.09
2023-03-03T02:44:05.985Z,97.19
2023-03-03T02:45:05.980Z,96.67
2023-03-03T02:46:06.028Z,97.09
2023-03-03T02:47:05.952Z,97.19
2023-03-03T02:48:05.949Z,96.98
2023-03-03T02:49:05.947Z,97.09
2023-03-03T02:50:05.933Z,97.03
2023-03-03T02:51:05.922Z,96.30
2023-03-03T02:52:05.921Z,96.36
2023-03-03T02:53:05.924Z,96.46
2023-03-03T02:54:05.900Z,96.40
2023-03-03T02:55:05.898Z,96.40
2023-03-03T02:56:05.885Z,96.30
2023-03-03T02:57:05.885Z,96.40
2023-03-03T02:58:05.867Z,96.40
2023-03-03T02:59:05.860Z,96.71
2023-03-03T03:00:05.856Z,96.09
2023-03-03T03:01:05.905Z,96.19
2023-03-03T03:02:05.837Z,96.46
2023-03-03T03:03:05.824Z,96.04
2023-03-03T03:04:07.639Z,95.88
2023-03-03T03:05:05.811Z,96.71
2023-03-03T03:06:05.803Z,96.25
2023-03-03T03:07:05.791Z,96.67
2023-03-03T03:08:05.797Z,96.67
2023-03-03T03:09:05.798Z,96.04
2023-03-03T03:10:05.771Z,96.46
2023-03-03T03:11:05.761Z,96.15
2023-03-03T03:12:05.758Z,96.46
2023-03-03T03:13:05.752Z,96.36
2023-03-03T03:14:05.742Z,96.15
2023-03-03T03:15:05.729Z,96.25
2023-03-03T03:16:05.722Z,96.36
2023-03-03T03:17:05.712Z,96.15
2023-03-03T03:18:05.708Z,96.15
2023-03-03T03:19:05.732Z,96.36
2023-03-03T03:20:05.696Z,96.15
2023-03-03T03:21:05.681Z,96.67
2023-03-03T03:22:05.678Z,96.15
2023-03-03T03:23:05.673Z,96.42
2023-03-03T03:24:05.665Z,96.15
2023-03-03T03:25:05.669Z,96.36
2023-03-03T03:26:05.649Z,95.89
2023-03-03T03:27:05.645Z,95.83
2023-03-03T03:28:05.629Z,95.62
2023-03-03T03:29:05.685Z,95.83
2023-03-03T03:30:05.612Z,95.62
2023-03-03T03:31:05.672Z,95.52
2023-03-03T03:32:05.625Z,95.83
2023-03-03T03:33:05.591Z,95.83
2023-03-03T03:34:05.603Z,95.73
2023-03-03T03:35:05.571Z,96.04
2023-03-03T03:36:05.567Z,96.04
2023-03-03T03:37:05.569Z,95.94
2023-03-03T03:38:05.558Z,95.88
2023-03-03T03:39:05.542Z,95.88
2023-03-03T03:40:05.532Z,96.04
2023-03-03T03:41:05.542Z,95.78
2023-03-03T03:42:05.519Z,95.94
2023-03-03T03:43:05.510Z,95.94
2023-03-03T03:44:05.510Z,96.36
2023-03-03T03:45:05.495Z,96.36
2023-03-03T03:46:05.556Z,96.46
2023-03-03T03:47:05.477Z,96.36
2023-03-03T03:48:05.472Z,96.36
2023-03-03T03:49:05.814Z,96.15
2023-03-03T03:50:05.455Z,96.15
2023-03-03T03:51:05.460Z,96.56
2023-03-03T03:52:05.446Z,97.04
2023-03-03T03:53:05.441Z,97.19
2023-03-03T03:54:05.428Z,95.94
2023-03-03T03:55:05.450Z,95.94
2023-03-03T03:56:05.415Z,95.52
2023-03-03T03:57:05.423Z,95.36
2023-03-03T03:58:05.398Z,95.21
2023-03-03T03:59:05.392Z,95.98
2023-03-03T04:00:05.414Z,96.09
2023-03-03T04:01:05.393Z,96.36
2023-03-03T04:02:05.485Z,96.25
2023-03-03T04:03:05.596Z,96.25
2023-03-03T04:04:05.358Z,96.36
2023-03-03T04:05:05.345Z,96.67
2023-03-03T04:06:05.346Z,96.36
2023-03-03T04:07:05.339Z,96.25
2023-03-03T04:08:05.324Z,96.25
2023-03-03T04:09:05.316Z,96.36
2023-03-03T04:10:05.317Z,96.25
2023-03-03T04:11:05.305Z,95.94
2023-03-03T04:12:05.302Z,95.83
2023-03-03T04:13:05.307Z,96.15
2023-03-03T04:14:05.278Z,96.15
2023-03-03T04:15:05.288Z,96.04
2023-03-03T04:16:05.287Z,95.94
2023-03-03T04:17:05.258Z,95.83
2023-03-03T04:18:05.247Z,95.94
2023-03-03T04:19:05.242Z,96.36
2023-03-03T04:20:05.236Z,96.36
2023-03-03T04:21:05.220Z,96.15
2023-03-03T04:22:05.222Z,96.31
2023-03-03T04:23:05.211Z,96.15
2023-03-03T04:24:05.209Z,95.79
2023-03-03T04:25:05.481Z,96.11
2023-03-03T04:26:05.187Z,96.21
2023-03-03T04:27:05.182Z,96.42
2023-03-03T04:28:05.740Z,95.89
2023-03-03T04:29:05.192Z,95.48
2023-03-03T04:30:05.157Z,95.17
2023-03-03T04:31:05.194Z,95.42
2023-03-03T04:32:05.182Z,95.31
2023-03-03T04:33:05.140Z,95.21
2023-03-03T04:34:05.123Z,95.42
2023-03-03T04:35:08.485Z,95.67
2023-03-03T04:36:05.110Z,95.73
2023-03-03T04:37:05.100Z,96.19
2023-03-03T04:38:05.112Z,96.50
2023-03-03T04:39:05.084Z,96.50
2023-03-03T04:40:05.078Z,96.44
2023-03-03T04:41:05.071Z,96.66
2023-03-03T04:42:05.080Z,96.97
2023-03-03T04:43:05.060Z,96.71
2023-03-03T04:44:05.053Z,97.44
2023-03-03T04:45:05.129Z,97.49
2023-03-03T04:46:05.067Z,97.80
2023-03-03T04:47:05.042Z,97.59
2023-03-03T04:48:05.024Z,97.49
2023-03-03T04:49:07.212Z,97.75
2023-03-03T04:50:05.009Z,97.65
2023-03-03T04:51:04.990Z,97.75
2023-03-03T04:52:04.989Z,97.86
2023-03-03T04:53:04.975Z,97.55
2023-03-03T04:54:05.322Z,97.86
2023-03-03T04:55:04.966Z,97.65
2023-03-03T04:56:04.951Z,97.65
2023-03-03T04:57:04.949Z,97.65
2023-03-03T04:58:04.942Z,97.24
2023-03-03T04:59:04.935Z,96.92
2023-03-03T05:00:04.924Z,97.24
2023-03-03T05:01:04.937Z,97.03
2023-03-03T05:02:04.907Z,97.44
2023-03-03T05:03:04.894Z,97.03
2023-03-03T05:04:04.887Z,96.71
2023-03-03T05:05:04.875Z,96.92
2023-03-03T05:06:04.873Z,96.50
2023-03-03T05:07:04.860Z,95.98
2023-03-03T05:08:04.854Z,96.09
2023-03-03T05:09:04.862Z,95.92
2023-03-03T05:10:04.840Z,95.98
2023-03-03T05:11:04.842Z,96.03
2023-03-03T05:12:04.828Z,96.23
2023-03-03T05:13:04.834Z,96.30
2023-03-03T05:14:04.802Z,96.34
2023-03-03T05:15:04.799Z,97.13
2023-03-03T05:16:04.809Z,97.34
2023-03-03T05:17:04.800Z,96.71
2023-03-03T05:18:04.768Z,96.34
2023-03-03T05:19:04.766Z,96.44
2023-03-03T05:20:04.760Z,96.34
2023-03-03T05:21:04.750Z,96.55
2023-03-03T05:22:04.752Z,96.23
2023-03-03T05:23:04.731Z,97.28
2023-03-03T05:24:04.721Z,96.97
2023-03-03T05:25:04.750Z,97.01
2023-03-03T05:26:04.716Z,97.22
2023-03-03T05:27:04.700Z,97.11
2023-03-03T05:28:04.775Z,97.11
2023-03-03T05:29:04.683Z,97.22
2023-03-03T05:30:04.678Z,97.01
2023-03-03T05:31:04.745Z,97.43
2023-03-03T05:32:04.699Z,97.53
2023-03-03T05:33:04.689Z,97.53
2023-03-03T05:34:04.644Z,97.53
2023-03-03T05:35:04.643Z,97.95
2023-03-03T05:36:04.647Z,97.89
2023-03-03T05:37:04.617Z,97.53
2023-03-03T05:38:05.566Z,97.89
2023-03-03T05:39:04.602Z,98.05
2023-03-03T05:40:04.601Z,97.74
2023-03-03T05:41:04.590Z,97.78
2023-03-03T05:42:04.577Z,97.74
2023-03-03T05:43:04.666Z,97.85
2023-03-03T05:44:04.564Z,97.89
2023-03-03T05:45:04.605Z,97.95
2023-03-03T05:46:04.540Z,97.89
2023-03-03T05:47:04.534Z,97.95
2023-03-03T05:48:04.532Z,98.26
2023-03-03T05:49:04.549Z,98.37
2023-03-03T05:50:04.510Z,98.05
2023-03-03T05:51:04.507Z,98.47
2023-03-03T05:52:04.494Z,97.91
2023-03-03T05:53:04.483Z,98.26
2023-03-03T05:54:04.475Z,97.91
2023-03-03T05:55:04.469Z,97.59
2023-03-03T05:56:04.466Z,97.59
2023-03-03T05:57:04.454Z,98.01
2023-03-03T05:58:04.446Z,97.70
2023-03-03T05:59:04.442Z,97.80
2023-03-03T06:00:04.429Z,97.49
2023-03-03T06:01:04.431Z,97.28
2023-03-03T06:02:04.470Z,97.28
2023-03-03T06:03:04.433Z,97.49
2023-03-03T06:04:04.402Z,97.07
2023-03-03T06:05:04.419Z,97.24
2023-03-03T06:06:04.381Z,97.44
2023-03-03T06:07:04.370Z,96.92
2023-03-03T06:08:04.367Z,96.97
2023-03-03T06:09:04.362Z,96.76
2023-03-03T06:10:04.355Z,96.44
2023-03-03T06:11:04.340Z,96.34
2023-03-03T06:12:04.339Z,96.55
2023-03-03T06:13:04.324Z,97.07
2023-03-03T06:14:04.318Z,97.22
2023-03-03T06:15:04.366Z,96.86
2023-03-03T06:16:04.362Z,97.22
2023-03-03T06:17:04.301Z,97.32
2023-03-03T06:18:04.288Z,97.43
2023-03-03T06:19:04.278Z,97.32
2023-03-03T06:20:04.287Z,97.74
2023-03-03T06:21:04.282Z,97.74
2023-03-03T06:22:04.265Z,97.64
2023-03-03T06:23:04.247Z,97.85
2023-03-03T06:24:04.271Z,97.74
2023-03-03T06:25:04.229Z,97.95
2023-03-03T06:26:04.218Z,97.64
2023-03-03T06:27:04.213Z,97.95
2023-03-03T06:28:04.215Z,97.74
2023-03-03T06:29:04.192Z,97.95
2023-03-03T06:30:04.187Z,97.53
2023-03-03T06:31:04.180Z,98.01
2023-03-03T06:32:04.274Z,98.22
2023-03-03T06:33:04.163Z,98.01
2023-03-03T06:34:04.172Z,97.74
2023-03-03T06:35:04.143Z,97.64
2023-03-03T06:36:05.858Z,97.74
2023-03-03T06:37:04.152Z,97.95
2023-03-03T06:38:04.119Z,97.53
2023-03-03T06:39:04.114Z,97.99
2023-03-03T06:40:04.103Z,97.64
2023-03-03T06:41:04.094Z,97.64
2023-03-03T06:42:04.083Z,97.95
2023-03-03T06:43:04.085Z,97.74
2023-03-03T06:44:04.065Z,97.64
2023-03-03T06:45:04.076Z,97.85
2023-03-03T06:46:04.083Z,97.95
2023-03-03T06:47:04.046Z,98.10
2023-03-03T06:48:04.049Z,97.95
2023-03-03T06:49:04.028Z,97.95
2023-03-03T06:50:04.024Z,97.89
2023-03-03T06:51:04.012Z,97.85
2023-03-03T06:52:04.003Z,97.53
2023-03-03T06:53:04.018Z,97.74
2023-03-03T06:54:03.984Z,98.05
2023-03-03T06:55:03.977Z,98.05
2023-03-03T06:56:03.969Z,97.53
2023-03-03T06:57:03.959Z,97.64
2023-03-03T06:58:03.949Z,97.64
2023-03-03T06:59:03.944Z,97.91
2023-03-03T07:00:03.966Z,97.85
2023-03-03T07:01:03.990Z,97.80
2023-03-03T07:02:03.918Z,97.59
2023-03-03T07:03:03.922Z,98.01
2023-03-03T07:04:03.933Z,97.70
2023-03-03T07:05:03.901Z,97.49
2023-03-03T07:06:06.104Z,96.91
2023-03-03T07:07:03.890Z,97.64
2023-03-03T07:08:03.876Z,97.43
2023-03-03T07:09:03.898Z,97.01
2023-03-03T07:10:03.860Z,97.38
2023-03-03T07:11:03.868Z,97.70
2023-03-03T07:12:03.847Z,97.28
2023-03-03T07:13:03.849Z,97.49
2023-03-03T07:14:03.851Z,97.80
2023-03-03T07:15:03.826Z,97.91
2023-03-03T07:16:03.818Z,97.59
2023-03-03T07:17:03.807Z,97.80
2023-03-03T07:18:03.798Z,97.59
2023-03-03T07:19:03.798Z,97.91
2023-03-03T07:20:03.780Z,97.65
2023-03-03T07:21:03.777Z,97.44
2023-03-03T07:22:03.766Z,97.65
2023-03-03T07:23:03.761Z,97.61
2023-03-03T07:24:03.751Z,97.86
2023-03-03T07:25:03.762Z,97.86
2023-03-03T07:26:03.736Z,97.55
2023-03-03T07:27:03.729Z,97.55
2023-03-03T07:28:03.717Z,97.71
2023-03-03T07:29:03.722Z,97.92
2023-03-03T07:30:03.704Z,97.30
2023-03-03T07:31:03.750Z,96.88
2023-03-03T07:32:03.707Z,96.46
2023-03-03T07:33:03.680Z,96.25
2023-03-03T07:34:03.672Z,95.94
2023-03-03T07:35:03.664Z,96.25
2023-03-03T07:36:03.655Z,95.94
2023-03-03T07:37:03.653Z,95.94
2023-03-03T07:38:03.640Z,95.89
2023-03-03T07:39:03.637Z,95.94
2023-03-03T07:40:03.624Z,95.89
2023-03-03T07:41:03.639Z,95.83
2023-03-03T07:42:03.608Z,96.00
2023-03-03T07:43:03.615Z,95.94
2023-03-03T07:44:03.594Z,95.89
2023-03-03T07:45:03.593Z,96.11
2023-03-03T07:46:03.681Z,96.00
2023-03-03T07:47:03.573Z,95.89
2023-03-03T07:48:03.571Z,95.89
2023-03-03T07:49:03.556Z,95.58
2023-03-03T07:50:03.545Z,95.48
2023-03-03T07:51:03.543Z,95.17
2023-03-03T07:52:03.539Z,94.33
2023-03-03T07:53:03.524Z,94.27
2023-03-03T07:54:03.516Z,94.12
2023-03-03T07:55:03.514Z,94.37
2023-03-03T07:56:03.508Z,94.75
2023-03-03T07:57:03.516Z,94.79
2023-03-03T07:58:03.491Z,95.10
2023-03-03T07:59:03.683Z,94.79
2023-03-03T08:00:03.487Z,95.62
2023-03-03T08:01:03.465Z,95.62
2023-03-03T08:02:03.456Z,95.52
2023-03-03T08:03:03.458Z,95.42
2023-03-03T08:04:03.552Z,95.31
2023-03-03T08:05:05.358Z,95.42
2023-03-03T08:06:03.423Z,95.31
2023-03-03T08:07:03.424Z,95.83
2023-03-03T08:08:03.409Z,95.62
2023-03-03T08:09:03.405Z,95.94
2023-03-03T08:10:03.390Z,95.62
2023-03-03T08:11:03.385Z,95.31
2023-03-03T08:12:03.371Z,95.10
2023-03-03T08:13:03.379Z,95.10
2023-03-03T08:14:03.369Z,95.25
2023-03-03T08:15:03.348Z,95.25
2023-03-03T08:16:03.397Z,95.04
2023-03-03T08:17:03.338Z,95.10
2023-03-03T08:18:03.329Z,94.84
2023-03-03T08:19:03.313Z,95.25
2023-03-03T08:20:03.298Z,95.04
2023-03-03T08:21:03.291Z,95.09
2023-03-03T08:22:03.282Z,95.50
2023-03-03T08:23:03.277Z,95.50
2023-03-03T08:24:03.272Z,95.29
2023-03-03T08:25:03.262Z,95.61
2023-03-03T08:26:03.251Z,95.40
2023-03-03T08:27:03.245Z,95.72
2023-03-03T08:28:03.232Z,95.29
2023-03-03T08:29:03.239Z,95.56
2023-03-03T08:30:03.211Z,95.61
2023-03-03T08:31:18.101Z,95.67
2023-03-03T08:32:03.336Z,95.67
2023-03-03T08:33:03.189Z,95.56
2023-03-03T08:34:03.185Z,95.36
2023-03-03T08:35:03.169Z,95.67
2023-03-03T08:36:03.169Z,95.46
2023-03-03T08:37:03.153Z,96.04
2023-03-03T08:38:03.144Z,95.83
2023-03-03T08:39:03.135Z,96.04
2023-03-03T08:40:03.129Z,95.83
2023-03-03T08:41:03.117Z,96.04
2023-03-03T08:42:03.122Z,95.31
2023-03-03T08:43:03.106Z,95.73
2023-03-03T08:44:03.096Z,95.62
2023-03-03T08:45:03.105Z,95.52
2023-03-03T08:46:03.137Z,95.62
2023-03-03T08:47:03.067Z,95.83
2023-03-03T08:48:05.608Z,95.68
2023-03-03T08:49:03.059Z,95.37
2023-03-03T08:50:03.052Z,95.27
2023-03-03T08:51:03.047Z,94.96
2023-03-03T08:52:03.030Z,94.96
2023-03-03T08:53:03.031Z,95.06
2023-03-03T08:54:03.016Z,94.02
2023-03-03T08:55:03.005Z,94.48
2023-03-03T08:56:02.996Z,95.10
2023-03-03T08:57:03.005Z,95.31
2023-03-03T08:58:02.989Z,95.00
2023-03-03T08:59:03.477Z,95.25
2023-03-03T09:00:02.973Z,94.90
2023-03-03T09:01:02.978Z,95.46
2023-03-03T09:02:02.978Z,95.36
2023-03-03T09:03:02.943Z,95.56
2023-03-03T09:04:02.931Z,95.46
2023-03-03T09:05:02.938Z,95.46
2023-03-03T09:06:02.916Z,95.36
2023-03-03T09:07:02.913Z,95.46
2023-03-03T09:08:02.911Z,95.78
2023-03-03T09:09:02.897Z,95.67
2023-03-03T09:10:02.897Z,95.88
2023-03-03T09:11:02.880Z,95.88
2023-03-03T09:12:02.868Z,95.67
2023-03-03T09:13:02.860Z,95.56
2023-03-03T09:14:02.856Z,95.67
2023-03-03T09:15:02.854Z,95.98
2023-03-03T09:16:02.834Z,96.19
2023-03-03T09:17:02.894Z,95.98
2023-03-03T09:18:02.817Z,95.88
2023-03-03T09:19:02.812Z,95.56
2023-03-03T09:20:02.808Z,95.67
2023-03-03T09:21:02.794Z,95.88
2023-03-03T09:22:02.784Z,95.56
2023-03-03T09:23:02.775Z,95.25
2023-03-03T09:24:02.767Z,95.56
2023-03-03T09:25:02.763Z,95.52
2023-03-03T09:26:02.748Z,95.36
2023-03-03T09:27:02.740Z,95.46
2023-03-03T09:28:02.740Z,95.36
2023-03-03T09:29:02.761Z,95.67
2023-03-03T09:30:02.720Z,95.56
2023-03-03T09:31:02.786Z,95.36
2023-03-03T09:32:03.099Z,95.62
2023-03-03T09:33:02.711Z,95.46
2023-03-03T09:34:02.684Z,95.46
2023-03-03T09:35:02.672Z,95.36
2023-03-03T09:36:02.664Z,94.94
2023-03-03T09:37:02.656Z,95.36
2023-03-03T09:38:02.655Z,95.46
2023-03-03T09:39:02.637Z,95.56
2023-03-03T09:40:02.636Z,95.46
2023-03-03T09:41:02.620Z,95.50
2023-03-03T09:42:02.614Z,95.61
2023-03-03T09:43:02.601Z,95.50
2023-03-03T09:44:02.592Z,95.61
2023-03-03T09:45:02.585Z,95.56
2023-03-03T09:46:02.577Z,95.61
2023-03-03T09:47:02.646Z,95.56
2023-03-03T09:48:02.560Z,95.78
2023-03-03T09:49:02.687Z,95.56
2023-03-03T09:50:02.979Z,95.56
2023-03-03T09:51:02.532Z,95.46
2023-03-03T09:52:02.526Z,95.46
2023-03-03T09:53:02.515Z,95.56
2023-03-03T09:54:02.510Z,95.46
2023-03-03T09:55:02.499Z,95.78
2023-03-03T09:56:02.493Z,95.78
2023-03-03T09:57:02.481Z,95.25
2023-03-03T09:58:10.554Z,95.36
2023-03-03T09:59:02.468Z,95.67
2023-03-03T10:00:02.468Z,95.46
2023-03-03T10:01:02.445Z,95.36
2023-03-03T10:02:03.476Z,95.46
2023-03-03T10:03:02.462Z,95.46
2023-03-03T10:04:02.541Z,95.36
2023-03-03T10:05:02.429Z,95.67
2023-03-03T10:06:02.410Z,95.46
2023-03-03T10:07:02.396Z,95.56
2023-03-03T10:08:02.391Z,94.84
2023-03-03T10:09:02.377Z,95.67
2023-03-03T10:10:02.374Z,95.25
2023-03-03T10:11:02.365Z,95.72
2023-03-03T10:12:02.353Z,95.15
2023-03-03T10:13:02.343Z,95.36
2023-03-03T10:14:02.380Z,95.46
2023-03-03T10:15:02.326Z,95.36
2023-03-03T10:16:02.351Z,95.56
2023-03-03T10:17:02.318Z,95.46
2023-03-03T10:18:02.302Z,95.25
2023-03-03T10:19:02.290Z,95.56
2023-03-03T10:20:02.286Z,95.15
2023-03-03T10:21:02.290Z,95.04
2023-03-03T10:22:02.263Z,95.04
2023-03-03T10:23:02.254Z,95.56
2023-03-03T10:24:02.250Z,95.25
2023-03-03T10:25:02.245Z,95.52
2023-03-03T10:26:02.228Z,95.31
2023-03-03T10:27:12.965Z,95.31
2023-03-03T10:28:02.218Z,95.21
2023-03-03T10:29:02.199Z,94.79
2023-03-03T10:30:02.285Z,95.00
2023-03-03T10:31:08.071Z,94.48
2023-03-03T10:32:02.454Z,94.10
2023-03-03T10:33:02.337Z,94.06
2023-03-03T10:34:02.160Z,93.85
2023-03-03T10:35:02.154Z,94.48
2023-03-03T10:36:07.455Z,94.48
2023-03-03T10:37:02.148Z,94.27
2023-03-03T10:38:02.134Z,94.17
2023-03-03T10:39:02.115Z,94.17
2023-03-03T10:40:02.115Z,94.17
2023-03-03T10:41:02.094Z,95.17
2023-03-03T10:42:02.088Z,94.64
2023-03-03T10:43:02.082Z,94.23
2023-03-03T10:44:02.106Z,94.02
2023-03-03T10:45:02.247Z,93.18
2023-03-03T10:46:02.088Z,93.18
2023-03-03T10:47:02.138Z,94.12
2023-03-03T10:48:02.329Z,94.02
2023-03-03T10:49:02.313Z,93.29
2023-03-03T10:50:02.514Z,93.18
2023-03-03T10:51:02.355Z,93.50
2023-03-03T10:52:02.101Z,93.50
2023-03-03T10:53:02.180Z,93.91
2023-03-03T10:54:02.032Z,93.81
2023-03-03T10:55:02.095Z,93.29
2023-03-03T10:56:02.101Z,93.71
2023-03-03T10:57:02.009Z,92.97
2023-03-03T10:58:02.203Z,92.97
2023-03-03T10:59:02.136Z,93.40
2023-03-03T11:00:02.080Z,92.97
2023-03-03T11:01:02.143Z,93.04
2023-03-03T11:02:02.100Z,93.66
2023-03-03T11:03:01.921Z,92.31
2023-03-03T11:04:02.621Z,92.41
2023-03-03T11:05:02.046Z,92.21
2023-03-03T11:06:02.522Z,92.41
2023-03-03T11:07:04.404Z,92.31
2023-03-03T11:08:02.129Z,92.21
2023-03-03T11:09:02.015Z,92.31
2023-03-03T11:10:01.948Z,92.31
2023-03-03T11:11:01.961Z,92.00
2023-03-03T11:12:01.955Z,92.21
2023-03-03T11:13:01.822Z,92.31
2023-03-03T11:14:02.244Z,92.31
2023-03-03T11:15:02.213Z,92.00
2023-03-03T11:16:01.899Z,92.31
2023-03-03T11:17:02.509Z,92.31
2023-03-03T11:18:02.391Z,92.10
2023-03-03T11:19:02.306Z,91.43
2023-03-03T11:20:02.234Z,91.75
2023-03-03T11:21:01.762Z,92.37
2023-03-03T11:22:01.998Z,92.68
2023-03-03T11:23:02.276Z,92.85
2023-03-03T11:24:02.245Z,92.95
2023-03-03T11:25:02.250Z,92.54
2023-03-03T11:26:02.183Z,92.85
2023-03-03T11:27:02.398Z,90.77
2023-03-03T11:28:01.715Z,90.56
2023-03-03T11:29:01.694Z,90.25
2023-03-03T11:30:01.688Z,89.35
2023-03-03T11:31:01.821Z,89.45
2023-03-03T11:32:01.704Z,89.76
2023-03-03T11:33:01.666Z,89.98
2023-03-03T11:34:01.653Z,89.87
2023-03-03T11:35:01.649Z,90.60
2023-03-03T11:36:01.690Z,90.66
2023-03-03T11:37:01.632Z,90.91
2023-03-03T11:38:01.623Z,90.45
2023-03-03T11:39:01.612Z,89.31
2023-03-03T11:40:01.612Z,89.45
2023-03-03T11:41:01.612Z,89.45
2023-03-03T11:42:01.594Z,89.76
2023-03-03T11:43:01.577Z,89.73
2023-03-03T11:44:01.573Z,89.45
2023-03-03T11:45:01.576Z,89.66
2023-03-03T11:46:01.618Z,89.73
2023-03-03T11:47:01.556Z,90.56
2023-03-03T11:48:01.561Z,90.83
2023-03-03T11:49:01.539Z,89.69
2023-03-03T11:50:01.543Z,89.48
2023-03-03T11:51:01.520Z,88.58
2023-03-03T11:52:01.514Z,88.06
2023-03-03T11:53:01.501Z,88.37
2023-03-03T11:54:01.492Z,88.89
2023-03-03T11:55:01.488Z,89.00
2023-03-03T11:56:01.477Z,89.20
2023-03-03T11:57:01.493Z,89.69
2023-03-03T11:58:01.460Z,89.89
2023-03-03T11:59:01.451Z,89.89
2023-03-03T12:00:01.448Z,89.27
2023-03-03T12:01:03.960Z,88.96
2023-03-03T12:02:01.426Z,89.17
2023-03-03T12:03:01.415Z,88.64
2023-03-03T12:04:01.410Z,88.43
2023-03-03T12:05:01.407Z,88.96
2023-03-03T12:06:01.528Z,89.12
2023-03-03T12:07:03.990Z,89.06
2023-03-03T12:08:01.381Z,88.81
2023-03-03T12:09:01.371Z,89.02
2023-03-03T12:10:01.364Z,89.43
2023-03-03T12:11:01.351Z,89.43
2023-03-03T12:12:01.346Z,89.33
2023-03-03T12:13:01.351Z,88.60
2023-03-03T12:14:01.331Z,88.29
2023-03-03T12:15:01.317Z,88.71
2023-03-03T12:16:01.367Z,88.81
2023-03-03T12:17:01.375Z,88.67
2023-03-03T12:18:01.297Z,88.46
2023-03-03T12:19:01.287Z,88.77
2023-03-03T12:20:01.281Z,88.77
2023-03-03T12:21:01.272Z,88.77
2023-03-03T12:22:01.319Z,88.87
2023-03-03T12:23:06.864Z,88.67
2023-03-03T12:24:03.064Z,88.25
2023-03-03T12:25:01.252Z,88.21
2023-03-03T12:26:01.248Z,88.31
2023-03-03T12:27:01.235Z,87.48
2023-03-03T12:28:01.232Z,87.21
2023-03-03T12:29:01.243Z,87.01
2023-03-03T12:30:02.794Z,86.90
2023-03-03T12:31:01.237Z,87.11
2023-03-03T12:32:02.307Z,86.80
2023-03-03T12:33:01.198Z,87.32
2023-03-03T12:34:01.200Z,87.01
2023-03-03T12:35:01.186Z,86.90
2023-03-03T12:36:01.208Z,87.11
2023-03-03T12:37:01.163Z,88.15
2023-03-03T12:38:01.154Z,87.84
2023-03-03T12:39:01.172Z,87.52
2023-03-03T12:40:01.144Z,86.80
2023-03-03T12:41:01.136Z,87.01
2023-03-03T12:42:01.260Z,87.11
2023-03-03T12:43:01.135Z,86.80
2023-03-03T12:44:01.113Z,86.59
2023-03-03T12:45:01.123Z,86.90
2023-03-03T12:46:01.096Z,87.21
2023-03-03T12:47:01.145Z,87.27
2023-03-03T12:48:01.088Z,87.11
2023-03-03T12:49:01.080Z,87.11
2023-03-03T12:50:07.435Z,87.21
2023-03-03T12:51:01.064Z,87.11
2023-03-03T12:52:01.066Z,87.42